createdAt,value
2022-10-02T19:57:40.281Z,10.03
2022-10-02T20:00:44.150Z,10.37
2022-10-02T20:03:48.720Z,10.49
2022-10-02T20:06:59.259Z,10.52
2022-10-02T20:10:07.179Z,10.54
2022-10-02T20:13:18.263Z,10.58
2022-10-02T20:16:41.525Z,10.69
2022-10-02T20:19:50.824Z,10.76
2022-10-02T20:22:58.826Z,10.89
2022-10-02T20:26:08.873Z,11.00
2022-10-02T20:29:20.737Z,11.04
2022-10-02T20:32:29.901Z,11.14
2022-10-02T20:35:38.320Z,11.19
2022-10-02T20:38:47.891Z,11.23
2022-10-02T20:41:57.567Z,11.25
2022-10-02T20:45:02.498Z,11.20
2022-10-02T20:49:06.292Z,11.14
2022-10-02T20:52:34.666Z,11.11
2022-10-02T20:55:43.502Z,11.07
2022-10-02T20:59:14.283Z,11.00
2022-10-02T21:02:36.270Z,11.04
2022-10-02T21:05:58.299Z,11.00
2022-10-02T21:09:27.843Z,10.95
2022-10-02T21:13:07.285Z,10.97
2022-10-02T21:16:47.435Z,10.98
2022-10-02T21:20:49.701Z,10.97
2022-10-02T21:24:17.393Z,10.92
2022-10-02T21:28:04.303Z,10.86
2022-10-02T21:31:24.886Z,10.81
2022-10-02T21:34:42.185Z,10.69
2022-10-02T21:38:00.167Z,10.67
2022-10-02T21:41:48.640Z,10.67
2022-10-02T21:45:46.754Z,10.64
2022-10-02T21:49:45.919Z,10.59
2022-10-02T21:53:33.557Z,10.49
2022-10-02T21:57:31.603Z,10.49
2022-10-02T22:00:56.338Z,10.48
2022-10-02T22:04:40.798Z,10.51
2022-10-02T22:07:51.410Z,10.48
2022-10-02T22:11:12.121Z,10.47
2022-10-02T22:14:23.463Z,10.47
2022-10-02T22:17:33.035Z,10.40
2022-10-02T22:20:58.645Z,10.37
2022-10-02T22:24:18.859Z,10.31
2022-10-02T22:27:50.832Z,10.39
2022-10-02T22:31:15.948Z,10.39
2022-10-02T22:34:36.524Z,10.40
2022-10-02T22:37:59.743Z,10.44
2022-10-02T22:41:08.178Z,10.48
2022-10-02T22:44:22.990Z,10.49
2022-10-02T22:47:32.273Z,10.51
2022-10-02T22:50:48.149Z,10.48
2022-10-02T22:53:59.680Z,10.49
2022-10-02T22:57:14.790Z,10.35
2022-10-02T23:00:22.485Z,10.40
2022-10-02T23:03:34.234Z,10.34
2022-10-02T23:06:45.122Z,10.39
2022-10-02T23:09:57.594Z,10.40
2022-10-02T23:13:12.513Z,10.39
2022-10-02T23:16:26.252Z,10.31
2022-10-02T23:19:40.324Z,10.39
2022-10-02T23:22:52.190Z,10.45
2022-10-02T23:26:02.070Z,10.54
2022-10-02T23:29:19.937Z,10.58
2022-10-02T23:32:31.554Z,10.58
2022-10-02T23:35:40.059Z,10.66
2022-10-02T23:38:51.590Z,10.68
2022-10-02T23:41:59.436Z,10.70
2022-10-02T23:45:10.420Z,10.67
2022-10-02T23:48:16.351Z,10.66
2022-10-02T23:51:31.488Z,10.61
2022-10-02T23:54:49.637Z,10.57
2022-10-02T23:58:16.757Z,10.60
